createdAt,value
2018-01-12T00:01:05.258Z,0
2018-01-12T00:02:03.053Z,0
2018-01-12T00:03:03.297Z,0
2018-01-12T00:04:02.530Z,0
2018-01-12T00:05:02.758Z,0
2018-01-12T00:06:03.831Z,0
2018-01-12T00:07:03.078Z,0
2018-01-12T00:08:03.392Z,0
2018-01-12T00:09:04.436Z,0
2018-01-12T00:10:02.870Z,0
2018-01-12T00:11:04.106Z,0
2018-01-12T00:12:03.514Z,0
2018-01-12T00:13:02.952Z,0
2018-01-12T00:14:03.536Z,0
2018-01-12T00:15:03.526Z,0
2018-01-12T00:16:03.619Z,0
2018-01-12T00:17:03.566Z,0
2018-01-12T00:18:03.750Z,0
2018-01-12T00:19:06.040Z,0
2018-01-12T00:20:03.568Z,0
2018-01-12T00:21:05.128Z,0
2018-01-12T00:22:04.431Z,0
2018-01-12T00:23:04.208Z,0
2018-01-12T00:24:04.933Z,0
2018-01-12T00:25:03.712Z,0
2018-01-12T00:26:04.384Z,0
2018-01-12T00:27:05.389Z,0
2018-01-12T00:28:05.944Z,0
2018-01-12T00:29:05.397Z,0
2018-01-12T00:30:05.224Z,0
2018-01-12T00:31:06.148Z,0
2018-01-12T00:32:05.027Z,0
2018-01-12T00:33:05.099Z,0
2018-01-12T00:34:04.828Z,0
2018-01-12T00:35:05.311Z,0
2018-01-12T00:36:05.894Z,0
2018-01-12T00:37:05.133Z,0
2018-01-12T00:38:06.949Z,0
2018-01-12T00:39:05.730Z,0
2018-01-12T00:40:06.407Z,0
2018-01-12T00:41:06.573Z,0
2018-01-12T00:42:06.962Z,0
2018-01-12T00:43:08.690Z,0
2018-01-12T00:44:08.072Z,0
2018-01-12T00:45:08.889Z,0
2018-01-12T00:46:06.634Z,0
2018-01-12T00:47:09.179Z,0
2018-01-12T00:48:09.162Z,0
2018-01-12T00:49:06.925Z,0
2018-01-12T00:50:06.165Z,0
2018-01-12T00:51:07.559Z,0
2018-01-12T00:52:07.696Z,0
2018-01-12T00:53:08.009Z,0
2018-01-12T00:54:07.094Z,0
2018-01-12T00:55:07.338Z,0
2018-01-12T00:56:07.438Z,0
2018-01-12T00:57:08.052Z,0
2018-01-12T00:58:07.610Z,0
2018-01-12T00:59:08.914Z,0
2018-01-12T01:00:23.569Z,0
2018-01-12T01:01:08.984Z,0
2018-01-12T01:03:07.956Z,0
2018-01-12T01:04:07.653Z,0
2018-01-12T01:05:07.300Z,0
2018-01-12T01:06:07.207Z,0
2018-01-12T01:07:09.465Z,0
2018-01-12T01:08:07.317Z,0
2018-01-12T01:09:07.870Z,0
2018-01-12T01:10:07.701Z,0
2018-01-12T01:11:07.551Z,0
2018-01-12T01:12:07.898Z,0
2018-01-12T01:13:07.433Z,0
2018-01-12T01:14:07.140Z,0
2018-01-12T01:15:08.546Z,0
2018-01-12T01:16:07.791Z,0
2018-01-12T01:17:07.488Z,0
2018-01-12T01:18:07.679Z,0
2018-01-12T01:19:08.178Z,0
2018-01-12T01:20:08.176Z,0
2018-01-12T01:21:08.986Z,0
2018-01-12T01:22:09.470Z,0
2018-01-12T01:23:09.357Z,0
2018-01-12T01:24:09.522Z,0
2018-01-12T01:25:09.379Z,0
2018-01-12T01:26:08.828Z,0
2018-01-12T01:27:08.733Z,0
2018-01-12T01:28:09.746Z,0
2018-01-12T01:29:09.814Z,0
2018-01-12T01:30:11.451Z,0
2018-01-12T01:31:09.796Z,0
2018-01-12T01:32:10.170Z,0
2018-01-12T01:33:09.441Z,0
2018-01-12T01:34:08.751Z,0
2018-01-12T01:35:10.444Z,0
2018-01-12T01:36:09.569Z,0
2018-01-12T01:37:09.574Z,0
2018-01-12T01:38:09.742Z,0
2018-01-12T01:39:10.240Z,0
2018-01-12T01:40:10.827Z,0
2018-01-12T01:41:10.062Z,0
2018-01-12T01:42:11.336Z,0
2018-01-12T01:43:11.426Z,0
2018-01-12T01:44:11.455Z,0
2018-01-12T01:45:11.765Z,0
2018-01-12T01:46:10.792Z,0
2018-01-12T01:47:11.097Z,0
2018-01-12T01:48:11.057Z,0
2018-01-12T01:49:11.303Z,0
2018-01-12T01:50:11.142Z,0
2018-01-12T01:51:12.326Z,0
2018-01-12T01:52:12.115Z,0
2018-01-12T01:53:12.389Z,0
2018-01-12T01:54:12.100Z,0
2018-01-12T01:55:13.037Z,0
2018-01-12T01:56:13.010Z,0
2018-01-12T01:57:13.841Z,0
2018-01-12T01:58:13.779Z,0
2018-01-12T01:59:13.737Z,0
2018-01-12T02:00:28.886Z,0
2018-01-12T02:01:29.061Z,0
2018-01-12T02:02:28.818Z,0
2018-01-12T02:03:28.961Z,0
2018-01-12T02:04:28.885Z,0
2018-01-12T02:05:29.050Z,0
2018-01-12T02:06:28.931Z,0
2018-01-12T02:07:29.839Z,0
2018-01-12T02:08:31.240Z,0
2018-01-12T02:09:31.553Z,0
2018-01-12T02:10:31.300Z,0
2018-01-12T02:11:31.526Z,0
2018-01-12T02:12:29.855Z,0
2018-01-12T02:13:32.691Z,0
2018-01-12T02:14:32.668Z,0
2018-01-12T02:15:31.244Z,0
2018-01-12T02:16:32.028Z,0
2018-01-12T02:17:32.861Z,0
2018-01-12T02:18:32.090Z,0
2018-01-12T02:19:31.948Z,0
2018-01-12T02:20:32.669Z,0
2018-01-12T02:21:32.895Z,0
2018-01-12T02:22:33.458Z,0
2018-01-12T02:23:32.477Z,0
2018-01-12T02:24:30.553Z,0
2018-01-12T02:25:31.277Z,0
2018-01-12T02:26:30.548Z,0
2018-01-12T02:27:31.444Z,0
2018-01-12T02:28:30.850Z,0
2018-01-12T02:29:31.150Z,0
2018-01-12T02:31:00.941Z,0
2018-01-12T02:31:46.033Z,0
2018-01-12T02:32:46.458Z,0
2018-01-12T02:33:46.630Z,0
2018-01-12T02:34:46.922Z,0
2018-01-12T02:35:47.266Z,0
2018-01-12T02:36:47.686Z,0
2018-01-12T02:37:47.156Z,0
2018-01-12T02:38:47.026Z,0
2018-01-12T02:39:47.316Z,0
2018-01-12T02:40:47.997Z,0
2018-01-12T02:41:47.926Z,0
2018-01-12T02:42:48.355Z,0
2018-01-12T02:43:48.257Z,0
2018-01-12T02:44:48.545Z,0
2018-01-12T02:45:48.719Z,0
2018-01-12T02:46:49.397Z,0
2018-01-12T02:47:49.363Z,0
2018-01-12T02:48:49.554Z,0
2018-01-12T02:49:49.180Z,0
2018-01-12T02:50:49.597Z,0
2018-01-12T02:51:49.408Z,0
2018-01-12T02:52:49.334Z,0
2018-01-12T02:53:49.594Z,0
2018-01-12T02:54:49.971Z,0
2018-01-12T02:55:50.434Z,0
2018-01-12T02:56:50.339Z,0
2018-01-12T02:57:50.691Z,0
2018-01-12T02:58:50.185Z,0
2018-01-12T02:59:50.595Z,0
2018-01-12T03:00:50.594Z,0
2018-01-12T03:01:50.602Z,0
2018-01-12T03:02:50.650Z,0
2018-01-12T03:03:51.179Z,0
2018-01-12T03:04:51.174Z,0
2018-01-12T03:05:51.001Z,0
2018-01-12T03:06:50.692Z,0
2018-01-12T03:07:51.228Z,0
2018-01-12T03:08:51.450Z,0
2018-01-12T03:09:50.782Z,0
2018-01-12T03:10:51.614Z,0
2018-01-12T03:11:51.724Z,0
2018-01-12T03:12:51.423Z,0
2018-01-12T03:13:51.144Z,0
2018-01-12T03:14:51.715Z,0
2018-01-12T03:15:50.967Z,0
2018-01-12T03:16:51.763Z,0
2018-01-12T03:17:51.504Z,0
2018-01-12T03:18:51.766Z,0
2018-01-12T03:19:51.832Z,0
2018-01-12T03:20:51.583Z,0
2018-01-12T03:21:51.877Z,0
2018-01-12T03:22:51.342Z,0
2018-01-12T03:23:51.603Z,0
2018-01-12T03:24:52.386Z,0
2018-01-12T03:25:52.455Z,0
2018-01-12T03:26:52.395Z,0
2018-01-12T03:27:52.514Z,0
2018-01-12T03:28:52.028Z,0
2018-01-12T03:29:52.288Z,0
2018-01-12T03:30:52.631Z,0
2018-01-12T03:31:52.515Z,0
2018-01-12T03:32:52.233Z,0
2018-01-12T03:33:52.582Z,0
2018-01-12T03:34:52.947Z,0
2018-01-12T03:35:53.226Z,0
2018-01-12T03:36:52.894Z,0
2018-01-12T03:37:52.637Z,0
2018-01-12T03:38:52.953Z,0
2018-01-12T03:39:53.382Z,0
2018-01-12T03:40:52.778Z,0
2018-01-12T03:41:54.148Z,0
2018-01-12T03:42:53.941Z,0
2018-01-12T03:43:54.021Z,0
2018-01-12T03:44:53.814Z,0
2018-01-12T03:45:53.474Z,0
2018-01-12T03:46:53.605Z,0
2018-01-12T03:47:55.464Z,0
2018-01-12T03:48:54.397Z,0
2018-01-12T03:49:55.800Z,0
2018-01-12T03:50:56.406Z,0
2018-01-12T03:51:54.173Z,0
2018-01-12T03:52:55.068Z,0
2018-01-12T03:53:54.721Z,0
2018-01-12T03:54:54.497Z,0
2018-01-12T03:55:54.655Z,0
2018-01-12T03:56:54.971Z,0
2018-01-12T03:57:55.292Z,0
2018-01-12T03:58:55.289Z,0
2018-01-12T03:59:54.840Z,0
2018-01-12T04:01:09.566Z,0
2018-01-12T04:01:55.080Z,0
2018-01-12T04:02:55.386Z,0
2018-01-12T04:03:56.571Z,0
2018-01-12T04:04:56.188Z,0
2018-01-12T04:05:55.566Z,0
2018-01-12T04:06:56.383Z,0
2018-01-12T04:07:56.065Z,0
2018-01-12T04:08:56.111Z,0
2018-01-12T04:09:56.106Z,0
2018-01-12T04:10:56.973Z,0
2018-01-12T04:11:58.811Z,0
2018-01-12T04:12:56.991Z,0
2018-01-12T04:13:56.192Z,0
2018-01-12T04:14:56.230Z,0
2018-01-12T04:15:57.582Z,0
2018-01-12T04:16:57.454Z,0
2018-01-12T04:17:56.999Z,0
2018-01-12T04:18:59.247Z,0
2018-01-12T04:19:57.049Z,0
2018-01-12T04:20:57.074Z,0
2018-01-12T04:21:57.296Z,0
2018-01-12T04:22:57.181Z,0
2018-01-12T04:23:56.852Z,0
2018-01-12T04:24:57.399Z,0
2018-01-12T04:25:57.388Z,0
2018-01-12T04:26:57.562Z,0
2018-01-12T04:27:57.776Z,0
2018-01-12T04:28:57.344Z,0
2018-01-12T04:29:57.236Z,0
2018-01-12T04:30:57.003Z,0
2018-01-12T04:31:57.573Z,0
2018-01-12T04:32:57.553Z,0
2018-01-12T04:33:57.539Z,0
2018-01-12T04:34:57.887Z,0
2018-01-12T04:35:57.594Z,0
2018-01-12T04:36:57.903Z,0
2018-01-12T04:37:58.247Z,0
2018-01-12T04:38:57.930Z,0
2018-01-12T04:39:58.360Z,0
2018-01-12T04:40:58.341Z,0
2018-01-12T04:41:57.944Z,0
2018-01-12T04:42:58.054Z,0
2018-01-12T04:43:58.380Z,0
2018-01-12T04:44:58.955Z,0
2018-01-12T04:45:58.329Z,0
2018-01-12T04:46:58.676Z,0
2018-01-12T04:47:58.264Z,0
2018-01-12T04:49:00.067Z,0
2018-01-12T04:49:59.384Z,0
2018-01-12T04:50:59.657Z,0
2018-01-12T04:51:59.080Z,0
2018-01-12T04:52:59.539Z,0
2018-01-12T04:53:59.176Z,0
2018-01-12T04:55:00.999Z,0
2018-01-12T04:55:59.014Z,0
2018-01-12T04:57:00.464Z,0
2018-01-12T04:58:00.765Z,0
2018-01-12T04:59:00.184Z,0
2018-01-12T04:59:59.920Z,0
2018-01-12T05:00:58.406Z,0
2018-01-12T05:01:59.124Z,0
2018-01-12T05:02:58.715Z,0
2018-01-12T05:03:58.037Z,0
2018-01-12T05:04:59.107Z,0
2018-01-12T05:05:58.750Z,0
2018-01-12T05:06:59.416Z,0
2018-01-12T05:07:59.143Z,0
2018-01-12T05:08:59.485Z,0
2018-01-12T05:09:59.708Z,0
2018-01-12T05:11:01.074Z,0
2018-01-12T05:11:58.836Z,0
2018-01-12T05:12:59.264Z,0
2018-01-12T05:13:59.386Z,0
2018-01-12T05:14:59.699Z,0
2018-01-12T05:15:58.631Z,0
2018-01-12T05:16:58.978Z,0
2018-01-12T05:17:59.911Z,0
2018-01-12T05:18:59.157Z,0
2018-01-12T05:19:59.445Z,0
2018-01-12T05:21:00.733Z,0
2018-01-12T05:23:00.315Z,0
2018-01-12T05:24:00.852Z,0
2018-01-12T05:25:00.078Z,0
2018-01-12T05:26:00.206Z,0
2018-01-12T05:26:59.525Z,0
2018-01-12T05:27:59.008Z,0
2018-01-12T05:28:59.418Z,0
2018-01-12T05:29:59.384Z,0
2018-01-12T05:30:59.682Z,0
2018-01-12T05:32:00.216Z,0
2018-01-12T05:33:00.086Z,0
2018-01-12T05:34:00.660Z,0
2018-01-12T05:35:00.441Z,0
2018-01-12T05:36:00.743Z,0
2018-01-12T05:37:00.762Z,0
2018-01-12T05:37:59.823Z,0
2018-01-12T05:39:00.750Z,0
2018-01-12T05:40:00.195Z,0
2018-01-12T05:41:00.697Z,0
2018-01-12T05:42:01.658Z,0
2018-01-12T05:43:02.564Z,0
2018-01-12T05:44:01.716Z,0
2018-01-12T05:45:01.757Z,0
2018-01-12T05:46:01.972Z,0
2018-01-12T05:47:01.055Z,0
2018-01-12T05:48:01.748Z,0
2018-01-12T05:49:01.423Z,0
2018-01-12T05:50:01.809Z,0
2018-01-12T05:51:01.617Z,0
2018-01-12T05:52:02.148Z,0
2018-01-12T05:53:02.234Z,0
2018-01-12T05:54:02.035Z,0
2018-01-12T05:55:03.209Z,0
2018-01-12T05:56:01.974Z,0
2018-01-12T05:57:02.562Z,0
2018-01-12T05:58:02.504Z,0
2018-01-12T05:59:02.763Z,0
2018-01-12T06:01:17.935Z,0
2018-01-12T06:02:03.423Z,0
2018-01-12T06:03:03.070Z,0
2018-01-12T06:04:03.447Z,0
2018-01-12T06:05:03.146Z,0
2018-01-12T06:06:03.434Z,0
2018-01-12T06:07:03.277Z,0
2018-01-12T06:08:03.180Z,0
2018-01-12T06:09:03.432Z,0
2018-01-12T06:10:03.545Z,0
2018-01-12T06:11:03.385Z,0
2018-01-12T06:12:02.888Z,0
2018-01-12T06:13:02.918Z,0
2018-01-12T06:14:04.090Z,0
2018-01-12T06:15:05.013Z,0
2018-01-12T06:16:03.919Z,0
2018-01-12T06:17:04.263Z,0
2018-01-12T06:18:03.928Z,0
2018-01-12T06:19:04.269Z,0
2018-01-12T06:20:04.574Z,0
2018-01-12T06:21:03.668Z,0
2018-01-12T06:22:03.627Z,0
2018-01-12T06:23:04.826Z,0
2018-01-12T06:24:04.631Z,0
2018-01-12T06:25:04.387Z,0
2018-01-12T06:26:04.404Z,0
2018-01-12T06:27:04.830Z,0
2018-01-12T06:28:06.135Z,0
2018-01-12T06:29:05.777Z,0
2018-01-12T06:30:05.512Z,0
2018-01-12T06:31:05.928Z,0
2018-01-12T06:32:05.419Z,0
2018-01-12T06:33:08.751Z,0
2018-01-12T06:34:07.256Z,0
2018-01-12T06:35:06.300Z,0
2018-01-12T06:36:06.692Z,0
2018-01-12T06:37:06.659Z,0
2018-01-12T06:38:07.054Z,0
2018-01-12T06:39:08.023Z,0
2018-01-12T06:40:07.990Z,0
2018-01-12T06:41:08.478Z,0
2018-01-12T06:42:08.990Z,0
2018-01-12T06:43:08.682Z,0
2018-01-12T06:44:07.772Z,0
2018-01-12T06:45:08.377Z,0
2018-01-12T06:46:08.213Z,0
2018-01-12T06:47:07.976Z,0
2018-01-12T06:48:08.521Z,0
2018-01-12T06:49:08.639Z,0
2018-01-12T06:50:08.626Z,0
2018-01-12T06:51:08.084Z,0
2018-01-12T06:52:08.185Z,0
2018-01-12T06:53:08.847Z,0
2018-01-12T06:54:09.318Z,0
2018-01-12T06:55:08.382Z,0
2018-01-12T06:56:08.762Z,0
2018-01-12T06:57:09.253Z,0
2018-01-12T06:58:09.024Z,0
2018-01-12T06:59:09.054Z,0
2018-01-12T07:01:09.774Z,0
2018-01-12T07:02:10.570Z,0
2018-01-12T07:03:10.787Z,0
2018-01-12T07:04:12.579Z,0
2018-01-12T07:05:11.421Z,0
2018-01-12T07:06:13.192Z,0
2018-01-12T07:07:10.371Z,0
2018-01-12T07:08:10.921Z,0
2018-01-12T07:09:11.314Z,0
2018-01-12T07:10:10.763Z,0
2018-01-12T07:11:11.058Z,0
2018-01-12T07:12:10.763Z,0
2018-01-12T07:13:10.841Z,0
2018-01-12T07:14:11.703Z,0
2018-01-12T07:15:11.032Z,0
2018-01-12T07:16:11.858Z,0
2018-01-12T07:17:11.419Z,0
2018-01-12T07:18:12.007Z,0
2018-01-12T07:19:11.977Z,0
2018-01-12T07:20:12.222Z,0
2018-01-12T07:21:13.332Z,0
2018-01-12T07:22:12.894Z,0
2018-01-12T07:23:12.963Z,0
2018-01-12T07:24:12.365Z,0
2018-01-12T07:25:12.430Z,0
2018-01-12T07:26:12.030Z,0
2018-01-12T07:27:13.012Z,0
2018-01-12T07:28:12.640Z,0
2018-01-12T07:29:12.856Z,0
2018-01-12T07:30:12.124Z,0
2018-01-12T07:31:12.364Z,0
2018-01-12T07:32:13.106Z,0
2018-01-12T07:33:12.711Z,0
2018-01-12T07:34:13.366Z,0
2018-01-12T07:35:13.814Z,0
2018-01-12T07:36:13.091Z,0
2018-01-12T07:37:14.029Z,0
2018-01-12T07:38:15.683Z,0
2018-01-12T07:39:13.547Z,0
2018-01-12T07:40:14.814Z,0
2018-01-12T07:41:14.347Z,0
2018-01-12T07:42:14.709Z,5
2018-01-12T07:43:14.990Z,5
2018-01-12T07:44:14.353Z,0
2018-01-12T07:45:14.608Z,5
2018-01-12T07:46:16.051Z,5
2018-01-12T07:47:14.584Z,5
2018-01-12T07:48:14.376Z,5
2018-01-12T07:49:14.659Z,5
2018-01-12T07:50:14.632Z,5
2018-01-12T07:51:14.552Z,5
2018-01-12T07:52:15.359Z,5
2018-01-12T07:53:15.263Z,5
2018-01-12T07:54:14.993Z,5
2018-01-12T07:55:15.390Z,5
2018-01-12T07:56:15.973Z,5
2018-01-12T07:57:15.825Z,5
2018-01-12T07:58:15.748Z,5
2018-01-12T07:59:16.472Z,5
2018-01-12T08:00:30.736Z,5
2018-01-12T08:01:17.759Z,5
2018-01-12T08:02:17.618Z,5
2018-01-12T08:03:15.827Z,5
2018-01-12T08:04:16.459Z,10
2018-01-12T08:05:15.990Z,10
2018-01-12T08:06:17.922Z,10
2018-01-12T08:07:17.200Z,10
2018-01-12T08:08:16.583Z,10
2018-01-12T08:09:16.539Z,10
2018-01-12T08:10:16.365Z,10
2018-01-12T08:11:16.634Z,10
2018-01-12T08:12:17.048Z,10
2018-01-12T08:13:16.597Z,10
2018-01-12T08:14:17.090Z,15
2018-01-12T08:15:16.953Z,15
2018-01-12T08:16:17.321Z,15
2018-01-12T08:17:18.795Z,20
2018-01-12T08:18:17.783Z,20
2018-01-12T08:19:18.808Z,20
2018-01-12T08:20:18.008Z,20
2018-01-12T08:21:18.058Z,20
2018-01-12T08:22:18.233Z,20
2018-01-12T08:23:19.097Z,25
2018-01-12T08:24:18.820Z,20
2018-01-12T08:25:19.386Z,20
2018-01-12T08:26:18.564Z,25
2018-01-12T08:27:19.341Z,30
2018-01-12T08:28:19.128Z,40
2018-01-12T08:29:19.321Z,35
2018-01-12T08:30:19.603Z,30
2018-01-12T08:31:19.682Z,30
2018-01-12T08:32:19.303Z,35
2018-01-12T08:33:19.767Z,30
2018-01-12T08:34:19.586Z,20
2018-01-12T08:35:19.654Z,20
2018-01-12T08:36:19.515Z,20
2018-01-12T08:37:20.382Z,25
2018-01-12T08:38:21.385Z,30
2018-01-12T08:39:19.598Z,40
2018-01-12T08:40:22.551Z,35
2018-01-12T08:41:20.883Z,35
2018-01-12T08:42:21.468Z,30
2018-01-12T08:43:21.705Z,30
2018-01-12T08:44:20.560Z,30
2018-01-12T08:45:20.496Z,25
2018-01-12T08:46:20.060Z,30
2018-01-12T08:47:21.061Z,30
2018-01-12T08:48:20.798Z,30
2018-01-12T08:49:21.034Z,30
2018-01-12T08:50:21.303Z,25
2018-01-12T08:51:21.997Z,30
2018-01-12T08:52:21.372Z,45
2018-01-12T08:53:21.669Z,50
2018-01-12T08:54:21.605Z,45
2018-01-12T08:55:22.200Z,40
2018-01-12T08:56:22.550Z,35
2018-01-12T08:57:22.032Z,30
2018-01-12T08:58:21.998Z,35
2018-01-12T08:59:22.487Z,35
2018-01-12T09:00:43.715Z,25
2018-01-12T09:01:27.461Z,25
2018-01-12T09:02:27.630Z,25
2018-01-12T09:03:28.814Z,25
2018-01-12T09:04:28.435Z,25
2018-01-12T09:05:28.305Z,30
2018-01-12T09:06:28.062Z,25
2018-01-12T09:07:28.995Z,25
2018-01-12T09:08:29.172Z,25
2018-01-12T09:09:29.407Z,25
2018-01-12T09:10:29.353Z,25
2018-01-12T09:11:29.086Z,25
2018-01-12T09:12:28.462Z,25
2018-01-12T09:13:28.927Z,25
2018-01-12T09:14:29.425Z,25
2018-01-12T09:15:29.670Z,25
2018-01-12T09:16:29.646Z,30
2018-01-12T09:17:29.242Z,25
2018-01-12T09:18:30.686Z,25
2018-01-12T09:19:31.537Z,25
2018-01-12T09:20:29.240Z,25
2018-01-12T09:21:29.254Z,25
2018-01-12T09:22:31.671Z,25
2018-01-12T09:23:30.141Z,25
2018-01-12T09:24:30.000Z,25
2018-01-12T09:25:29.314Z,30
2018-01-12T09:26:29.158Z,35
2018-01-12T09:27:29.213Z,30
2018-01-12T09:28:31.640Z,30
2018-01-12T09:29:31.079Z,30
2018-01-12T09:30:32.105Z,30
2018-01-12T09:31:30.082Z,35
2018-01-12T09:32:29.564Z,35
2018-01-12T09:33:29.478Z,35
2018-01-12T09:34:29.627Z,35
2018-01-12T09:35:30.012Z,35
2018-01-12T09:36:29.190Z,35
2018-01-12T09:37:30.360Z,30
2018-01-12T09:38:31.110Z,30
2018-01-12T09:39:29.754Z,35
2018-01-12T09:40:29.790Z,30
2018-01-12T09:41:30.420Z,35
2018-01-12T09:42:30.384Z,30
2018-01-12T09:43:30.225Z,35
2018-01-12T09:44:30.764Z,40
2018-01-12T09:45:31.792Z,40
2018-01-12T09:46:30.648Z,40
2018-01-12T09:47:31.057Z,40
2018-01-12T09:48:30.955Z,40
2018-01-12T09:49:31.100Z,45
2018-01-12T09:50:31.225Z,45
2018-01-12T09:51:30.847Z,40
2018-01-12T09:52:30.776Z,40
2018-01-12T09:53:30.880Z,40
2018-01-12T09:54:36.312Z,40
2018-01-12T09:55:36.378Z,35
2018-01-12T09:56:41.801Z,40
2018-01-12T09:57:41.852Z,45
2018-01-12T09:58:41.595Z,35
2018-01-12T09:59:41.670Z,35
2018-01-12T10:00:41.745Z,35
2018-01-12T10:01:42.210Z,45
2018-01-12T10:02:41.915Z,50
2018-01-12T10:03:42.440Z,55
2018-01-12T10:04:42.559Z,45
2018-01-12T10:05:42.926Z,40
2018-01-12T10:06:43.089Z,40
2018-01-12T10:07:42.393Z,45
2018-01-12T10:08:46.171Z,55
2018-01-12T10:09:44.922Z,55
2018-01-12T10:10:45.653Z,50
2018-01-12T10:11:45.637Z,45
2018-01-12T10:12:43.248Z,45
2018-01-12T10:13:43.340Z,50
2018-01-12T10:14:44.046Z,50
2018-01-12T10:15:44.639Z,55
2018-01-12T10:16:44.753Z,55
2018-01-12T10:17:43.949Z,50
2018-01-12T10:18:44.606Z,50
2018-01-12T10:19:44.770Z,45
2018-01-12T10:20:46.206Z,45
2018-01-12T10:21:44.670Z,50
2018-01-12T10:22:44.537Z,45
2018-01-12T10:23:43.795Z,45
2018-01-12T10:24:44.926Z,45
2018-01-12T10:25:44.591Z,45
2018-01-12T10:26:44.348Z,45
2018-01-12T10:27:44.414Z,50
2018-01-12T10:28:44.284Z,45
2018-01-12T10:29:44.064Z,45
2018-01-12T10:30:45.297Z,45
2018-01-12T10:31:44.586Z,45
2018-01-12T10:32:44.912Z,50
2018-01-12T10:33:44.307Z,55
2018-01-12T10:34:44.801Z,50
2018-01-12T10:35:44.380Z,45
2018-01-12T10:36:44.644Z,40
2018-01-12T10:37:44.805Z,45
2018-01-12T10:38:44.954Z,35
2018-01-12T10:39:45.651Z,35
2018-01-12T10:40:45.840Z,35
2018-01-12T10:41:45.243Z,40
2018-01-12T10:42:45.485Z,50
2018-01-12T10:43:45.707Z,50
2018-01-12T10:44:46.011Z,50
2018-01-12T10:45:48.401Z,45
2018-01-12T10:46:47.204Z,40
2018-01-12T10:47:48.738Z,50
2018-01-12T10:48:48.168Z,55
2018-01-12T10:49:48.684Z,60
2018-01-12T10:50:48.516Z,60
2018-01-12T10:51:49.369Z,55
2018-01-12T10:52:48.544Z,45
2018-01-12T10:53:48.684Z,60
2018-01-12T10:54:48.103Z,55
2018-01-12T10:55:47.666Z,50
2018-01-12T10:56:48.488Z,45
2018-01-12T10:57:48.786Z,40
2018-01-12T10:58:48.749Z,45
2018-01-12T10:59:48.446Z,55
2018-01-12T11:00:48.907Z,55
2018-01-12T11:01:46.847Z,55
2018-01-12T11:02:48.930Z,50
2018-01-12T11:03:47.013Z,50
2018-01-12T11:04:47.216Z,55
2018-01-12T11:05:47.141Z,60
2018-01-12T11:06:47.971Z,65
2018-01-12T11:07:46.589Z,55
2018-01-12T11:08:48.129Z,45
2018-01-12T11:09:47.628Z,45
2018-01-12T11:10:48.210Z,55
2018-01-12T11:11:49.635Z,50
2018-01-12T11:12:48.659Z,40
2018-01-12T11:13:48.510Z,40
2018-01-12T11:14:48.321Z,40
2018-01-12T11:15:48.392Z,40
2018-01-12T11:16:47.394Z,40
2018-01-12T11:17:47.799Z,45
2018-01-12T11:18:47.757Z,45
2018-01-12T11:19:46.938Z,40
2018-01-12T11:20:48.535Z,35
2018-01-12T11:21:46.951Z,30
2018-01-12T11:22:48.037Z,35
2018-01-12T11:23:47.209Z,40
2018-01-12T11:24:48.320Z,45
2018-01-12T11:25:48.553Z,40
2018-01-12T11:26:47.597Z,40
2018-01-12T11:27:47.124Z,35
2018-01-12T11:28:46.966Z,45
2018-01-12T11:29:46.895Z,35
2018-01-12T11:30:46.709Z,45
2018-01-12T11:31:46.641Z,50
2018-01-12T11:32:47.692Z,45
2018-01-12T11:33:47.420Z,45
2018-01-12T11:34:47.917Z,40
2018-01-12T11:35:48.189Z,40
2018-01-12T11:36:47.896Z,35
2018-01-12T11:37:48.635Z,40
2018-01-12T11:38:49.189Z,35
2018-01-12T11:39:49.073Z,30
2018-01-12T11:40:48.893Z,30
2018-01-12T11:41:49.299Z,30
2018-01-12T11:42:49.266Z,30
2018-01-12T11:43:49.212Z,30
2018-01-12T11:44:49.448Z,35
2018-01-12T11:45:48.978Z,30
2018-01-12T11:46:49.990Z,30
2018-01-12T11:47:49.447Z,35
2018-01-12T11:48:48.795Z,40
2018-01-12T11:49:49.092Z,40
2018-01-12T11:50:49.406Z,45
2018-01-12T11:51:49.550Z,40
2018-01-12T11:52:49.634Z,40
2018-01-12T11:53:49.095Z,40
2018-01-12T11:54:49.739Z,40
2018-01-12T11:55:50.009Z,40
2018-01-12T11:56:49.091Z,45
2018-01-12T11:57:49.731Z,45
2018-01-12T11:58:49.604Z,45
2018-01-12T11:59:51.005Z,45
2018-01-12T12:00:50.145Z,40
2018-01-12T12:01:51.068Z,40
2018-01-12T12:02:52.291Z,40
2018-01-12T12:03:52.662Z,45
2018-01-12T12:04:50.421Z,50
2018-01-12T12:05:50.850Z,45
2018-01-12T12:06:51.462Z,50
2018-01-12T12:07:51.309Z,50
2018-01-12T12:08:50.453Z,50
2018-01-12T12:09:50.608Z,50
2018-01-12T12:10:51.400Z,50
2018-01-12T12:11:51.319Z,45
2018-01-12T12:12:50.306Z,45
2018-01-12T12:13:50.918Z,45
2018-01-12T12:14:50.132Z,40
2018-01-12T12:15:50.445Z,45
2018-01-12T12:16:51.587Z,50
2018-01-12T12:17:52.627Z,50
2018-01-12T12:18:52.194Z,45
2018-01-12T12:19:50.380Z,50
2018-01-12T12:20:51.030Z,45
2018-01-12T12:22:05.439Z,45
2018-01-12T12:22:52.540Z,50
2018-01-12T12:23:50.799Z,50
2018-01-12T12:24:53.365Z,45
2018-01-12T12:25:52.079Z,45
2018-01-12T12:26:52.058Z,45
2018-01-12T12:27:52.448Z,50
2018-01-12T12:28:52.072Z,50
2018-01-12T12:29:52.108Z,50
2018-01-12T12:30:52.567Z,45
2018-01-12T12:31:52.461Z,45
2018-01-12T12:32:52.416Z,50
2018-01-12T12:33:52.231Z,50
2018-01-12T12:34:51.645Z,50
2018-01-12T12:35:52.781Z,50
2018-01-12T12:36:52.097Z,45
2018-01-12T12:37:53.543Z,40
2018-01-12T12:38:52.212Z,50
2018-01-12T12:39:52.491Z,45
2018-01-12T12:40:53.281Z,45
2018-01-12T12:41:53.822Z,40
2018-01-12T12:42:54.063Z,40
2018-01-12T12:43:54.376Z,40
2018-01-12T12:44:53.757Z,35
2018-01-12T12:45:52.735Z,45
2018-01-12T12:46:53.477Z,45
2018-01-12T12:47:54.766Z,40
2018-01-12T12:48:53.282Z,45
2018-01-12T12:49:53.811Z,45
2018-01-12T12:50:54.505Z,40
2018-01-12T12:51:54.672Z,40
2018-01-12T12:52:54.034Z,45
2018-01-12T12:53:53.417Z,45
2018-01-12T12:54:55.716Z,40
2018-01-12T12:55:54.982Z,45
2018-01-12T12:56:57.358Z,45
2018-01-12T12:57:54.690Z,45
2018-01-12T12:58:55.547Z,40
2018-01-12T12:59:56.490Z,40
2018-01-12T13:00:54.793Z,40
2018-01-12T13:01:54.530Z,35
2018-01-12T13:02:56.755Z,35
2018-01-12T13:03:55.847Z,35
2018-01-12T13:04:55.452Z,40
2018-01-12T13:05:54.745Z,40
2018-01-12T13:06:54.713Z,40
2018-01-12T13:07:58.238Z,40
2018-01-12T13:08:56.080Z,40
2018-01-12T13:09:57.607Z,35
2018-01-12T13:10:56.284Z,40
2018-01-12T13:11:54.846Z,40
2018-01-12T13:12:55.571Z,40
2018-01-12T13:13:55.808Z,40
2018-01-12T13:14:56.578Z,35
2018-01-12T13:15:56.686Z,35
2018-01-12T13:16:56.596Z,35
2018-01-12T13:17:56.696Z,35
2018-01-12T13:18:55.311Z,35
2018-01-12T13:19:56.353Z,30
2018-01-12T13:20:55.758Z,30
2018-01-12T13:21:55.136Z,30
2018-01-12T13:22:55.160Z,30
2018-01-12T13:23:55.864Z,35
2018-01-12T13:24:55.928Z,30
2018-01-12T13:25:55.923Z,30
2018-01-12T13:26:57.057Z,30
2018-01-12T13:27:55.443Z,30
2018-01-12T13:28:56.732Z,30
2018-01-12T13:29:57.372Z,30
2018-01-12T13:30:56.830Z,30
2018-01-12T13:31:56.601Z,30
2018-01-12T13:32:56.470Z,25
2018-01-12T13:33:56.918Z,25
2018-01-12T13:34:57.517Z,25
2018-01-12T13:35:57.611Z,25
2018-01-12T13:37:57.306Z,30
2018-01-12T13:38:57.391Z,25
2018-01-12T13:39:57.873Z,25
2018-01-12T13:40:57.074Z,25
2018-01-12T13:41:58.668Z,30
2018-01-12T13:42:57.303Z,35
2018-01-12T13:43:57.047Z,25
2018-01-12T13:44:58.356Z,25
2018-01-12T13:45:57.780Z,30
2018-01-12T13:46:58.598Z,35
2018-01-12T13:47:58.257Z,35
2018-01-12T13:48:57.854Z,30
2018-01-12T13:49:58.101Z,25
2018-01-12T13:50:57.565Z,25
2018-01-12T13:51:59.628Z,25
2018-01-12T13:52:58.969Z,25
2018-01-12T13:53:58.832Z,25
2018-01-12T13:54:58.305Z,20
2018-01-12T13:55:58.262Z,15
2018-01-12T13:56:59.299Z,15
2018-01-12T13:57:59.020Z,20
2018-01-12T13:59:00.519Z,15
2018-01-12T14:00:00.144Z,15
2018-01-12T14:01:00.942Z,15
2018-01-12T14:02:00.043Z,15
2018-01-12T14:02:59.843Z,15
2018-01-12T14:03:59.516Z,15
2018-01-12T14:05:00.237Z,15
2018-01-12T14:05:59.990Z,15
2018-01-12T14:07:00.110Z,15
2018-01-12T14:08:00.794Z,15
2018-01-12T14:09:00.035Z,15
2018-01-12T14:09:59.883Z,15
2018-01-12T14:11:00.264Z,15
2018-01-12T14:12:01.971Z,15
2018-01-12T14:13:00.935Z,15
2018-01-12T14:14:01.319Z,15
2018-01-12T14:15:01.475Z,15
2018-01-12T14:16:01.830Z,15
2018-01-12T14:17:01.762Z,15
2018-01-12T14:18:02.546Z,10
2018-01-12T14:19:01.496Z,15
2018-01-12T14:20:02.813Z,10
2018-01-12T14:21:02.674Z,15
2018-01-12T14:22:02.287Z,15
2018-01-12T14:23:03.251Z,15
2018-01-12T14:24:04.299Z,15
2018-01-12T14:25:03.051Z,15
2018-01-12T14:26:02.869Z,15
2018-01-12T14:27:03.237Z,10
2018-01-12T14:28:02.428Z,10
2018-01-12T14:29:04.578Z,10
2018-01-12T14:30:03.591Z,10
2018-01-12T14:31:03.868Z,10
2018-01-12T14:32:03.528Z,10
2018-01-12T14:33:05.390Z,10
2018-01-12T14:34:04.331Z,10
2018-01-12T14:35:19.623Z,10
2018-01-12T14:36:04.486Z,10
2018-01-12T14:37:04.350Z,10
2018-01-12T14:38:04.830Z,10
2018-01-12T14:39:05.192Z,10
2018-01-12T14:40:05.047Z,5